createdAt,value
2022-10-09T00:01:24.946Z,99883.97
2022-10-09T00:04:29.564Z,99884.50
2022-10-09T00:07:32.693Z,99877.47
2022-10-09T00:10:36.053Z,99876.22
2022-10-09T00:13:39.635Z,99873.69
2022-10-09T00:16:42.842Z,99869.91
2022-10-09T00:19:47.523Z,99877.38
2022-10-09T00:22:50.965Z,99866.66
2022-10-09T00:25:55.205Z,99863.81
2022-10-09T00:28:58.952Z,99864.84
2022-10-09T00:32:02.229Z,99867.03
2022-10-09T00:35:07.624Z,99872.50
2022-10-09T00:38:12.121Z,99863.50
2022-10-09T00:41:17.151Z,99865.53
2022-10-09T00:44:49.865Z,99860.25
2022-10-09T00:47:56.538Z,99865.41
2022-10-09T00:51:03.224Z,99862.00
2022-10-09T00:54:10.063Z,99858.81
2022-10-09T00:57:13.391Z,99865.00
2022-10-09T01:00:17.022Z,99862.94
2022-10-09T01:03:20.251Z,99869.88
2022-10-09T01:06:32.649Z,99861.06
2022-10-09T01:09:43.504Z,99858.56
2022-10-09T01:12:54.622Z,99869.06
2022-10-09T01:16:02.179Z,99865.41
2022-10-09T01:19:14.000Z,99860.50
2022-10-09T01:22:34.105Z,99858.88
2022-10-09T01:25:47.959Z,99858.91
2022-10-09T01:28:56.972Z,99847.81
2022-10-09T01:32:02.738Z,99850.13
2022-10-09T01:35:07.794Z,99853.47
2022-10-09T01:38:11.090Z,99859.81
2022-10-09T01:41:14.303Z,99858.66
2022-10-09T01:44:20.729Z,99866.38
2022-10-09T01:47:24.331Z,99853.56
2022-10-09T01:50:31.674Z,99866.53
2022-10-09T01:53:37.823Z,99859.09
2022-10-09T01:56:41.186Z,99868.69
2022-10-09T01:59:48.717Z,99868.09
2022-10-09T02:02:53.638Z,99874.78
2022-10-09T02:05:58.293Z,99879.94
2022-10-09T02:09:03.900Z,99879.81
2022-10-09T02:12:11.168Z,99878.03
2022-10-09T02:15:16.908Z,99875.69
2022-10-09T02:18:27.578Z,99875.41
2022-10-09T02:21:39.740Z,99875.13
2022-10-09T02:24:43.821Z,99875.97
2022-10-09T02:27:47.872Z,99877.19
2022-10-09T02:31:00.313Z,99883.41
2022-10-09T02:34:06.544Z,99883.56
2022-10-09T02:37:09.962Z,99884.22
2022-10-09T02:40:13.273Z,99894.69
2022-10-09T02:43:16.451Z,99889.59
2022-10-09T02:46:21.345Z,99885.59
2022-10-09T02:49:24.628Z,99890.44
2022-10-09T02:52:27.982Z,99886.38
2022-10-09T02:55:31.180Z,99886.91
2022-10-09T02:58:35.776Z,99889.84
2022-10-09T03:01:41.554Z,99896.09
2022-10-09T03:04:44.912Z,99887.31
2022-10-09T03:07:51.558Z,99896.63
2022-10-09T03:10:54.982Z,99907.75
2022-10-09T03:13:58.264Z,99892.50
2022-10-09T03:17:02.945Z,99899.84
2022-10-09T03:20:07.899Z,99900.88
2022-10-09T03:23:11.246Z,99893.84
2022-10-09T03:26:16.461Z,99907.81
2022-10-09T03:29:19.785Z,99902.06
2022-10-09T03:32:24.544Z,99905.53
2022-10-09T03:35:27.749Z,99903.38
2022-10-09T03:38:30.978Z,99904.16
2022-10-09T03:41:34.221Z,99913.13
2022-10-09T03:44:37.438Z,99909.16
2022-10-09T03:47:42.072Z,99901.25
2022-10-09T03:50:45.405Z,99910.59
2022-10-09T03:53:48.635Z,99911.91
2022-10-09T03:56:51.872Z,99905.88
2022-10-09T03:59:55.086Z,99910.47
2022-10-09T04:02:59.792Z,99915.72
2022-10-09T04:06:03.118Z,99907.97
2022-10-09T04:09:06.377Z,99901.06
2022-10-09T04:12:09.650Z,99907.19
2022-10-09T04:15:12.857Z,99914.56
2022-10-09T04:18:17.426Z,99910.97
2022-10-09T04:21:20.698Z,99912.88
2022-10-09T04:24:24.034Z,99918.84
2022-10-09T04:27:27.203Z,99913.56
2022-10-09T04:30:30.431Z,99920.50
2022-10-09T04:33:35.143Z,99916.41
2022-10-09T04:36:38.402Z,99920.66
2022-10-09T04:39:41.606Z,99928.88
2022-10-09T04:42:44.834Z,99924.59
2022-10-09T04:45:48.112Z,99930.03
2022-10-09T04:48:52.898Z,99929.38
2022-10-09T04:51:56.095Z,99934.47
2022-10-09T04:54:59.350Z,99945.16
2022-10-09T04:58:02.556Z,99933.16
2022-10-09T05:01:08.314Z,99929.53
2022-10-09T05:04:12.958Z,99943.00
2022-10-09T05:07:16.159Z,99941.97
2022-10-09T05:10:19.407Z,99939.63
2022-10-09T05:13:22.747Z,99947.50
2022-10-09T05:16:27.863Z,99943.72
2022-10-09T05:19:32.722Z,99949.75
2022-10-09T05:22:35.859Z,99941.25
2022-10-09T05:25:39.112Z,99940.91
2022-10-09T05:28:42.942Z,99951.78
2022-10-09T05:31:49.522Z,99949.38
2022-10-09T05:34:54.562Z,99949.59
2022-10-09T05:37:57.835Z,99962.22
2022-10-09T05:41:02.576Z,99963.59
2022-10-09T05:44:05.963Z,99972.13
2022-10-09T05:47:09.154Z,99973.47
2022-10-09T05:50:13.790Z,99965.66
2022-10-09T05:53:17.019Z,99965.56
2022-10-09T05:56:23.158Z,99972.22
2022-10-09T05:59:26.442Z,99977.34
2022-10-09T06:02:29.775Z,99976.13
2022-10-09T06:05:34.417Z,99980.75
2022-10-09T06:08:39.385Z,99986.94
2022-10-09T06:11:43.916Z,99991.53
2022-10-09T06:14:47.744Z,99994.19
2022-10-09T06:17:50.861Z,99992.50
2022-10-09T06:20:56.771Z,99989.34
2022-10-09T06:24:02.943Z,99990.13
2022-10-09T06:27:06.401Z,99995.63
2022-10-09T06:30:10.950Z,99999.16
2022-10-09T06:33:14.186Z,100003.66
2022-10-09T06:36:20.581Z,100001.06
2022-10-09T06:39:26.475Z,100010.41
2022-10-09T06:42:29.655Z,100006.31
2022-10-09T06:45:38.765Z,100013.69
2022-10-09T06:48:42.519Z,100011.53
2022-10-09T06:51:47.083Z,100015.69
2022-10-09T06:54:50.306Z,100024.88
2022-10-09T06:57:53.502Z,100023.06
2022-10-09T07:01:07.958Z,100016.00
2022-10-09T07:04:13.054Z,100018.28
2022-10-09T07:07:17.604Z,100016.47
2022-10-09T07:10:25.121Z,100010.28
2022-10-09T07:13:30.962Z,100011.91
2022-10-09T07:16:36.097Z,100012.59
2022-10-09T07:19:39.462Z,100011.84
2022-10-09T07:22:44.052Z,100015.88
2022-10-09T07:25:47.241Z,100014.31
2022-10-09T07:28:50.998Z,100015.75
2022-10-09T07:31:54.171Z,100016.31
2022-10-09T07:34:57.459Z,100023.22
2022-10-09T07:38:02.107Z,100023.63
2022-10-09T07:41:07.644Z,100023.22
2022-10-09T07:44:13.284Z,100025.56
2022-10-09T07:47:16.527Z,100028.66
2022-10-09T07:50:19.773Z,100031.41
2022-10-09T07:53:25.093Z,100038.19
2022-10-09T07:56:30.274Z,100039.41
2022-10-09T07:59:33.526Z,100035.09
2022-10-09T08:02:36.757Z,100033.72
2022-10-09T08:05:41.235Z,100036.91
2022-10-09T08:08:46.615Z,100032.75
2022-10-09T08:11:49.862Z,100035.19
2022-10-09T08:14:53.159Z,100032.91
2022-10-09T08:17:57.209Z,100030.53
2022-10-09T08:21:01.823Z,100029.56
2022-10-09T08:24:07.073Z,100041.53
2022-10-09T08:27:10.338Z,100033.84
2022-10-09T08:30:19.495Z,100038.34
2022-10-09T08:33:23.542Z,100033.13
2022-10-09T08:36:27.244Z,100025.94
2022-10-09T08:39:33.045Z,100013.69
2022-10-09T08:42:43.878Z,100016.19
2022-10-09T08:45:50.750Z,100015.88
2022-10-09T08:48:56.205Z,100014.41
2022-10-09T08:52:12.540Z,99995.81
2022-10-09T08:55:22.671Z,99996.66
2022-10-09T08:58:30.766Z,99987.72
2022-10-09T09:01:40.893Z,100001.72
2022-10-09T09:04:57.972Z,99998.88
2022-10-09T09:08:07.201Z,100001.66
2022-10-09T09:11:22.507Z,99995.25
2022-10-09T09:14:36.162Z,99995.44
2022-10-09T09:17:47.609Z,99991.47
2022-10-09T09:20:54.291Z,99983.16
2022-10-09T09:24:01.739Z,99975.38
2022-10-09T09:27:14.302Z,99982.06
2022-10-09T09:30:20.997Z,99983.00
2022-10-09T09:33:35.864Z,99975.28
2022-10-09T09:36:45.836Z,99983.31
2022-10-09T09:43:20.104Z,99979.66
2022-10-09T09:46:28.503Z,99978.25
2022-10-09T09:49:32.870Z,99966.81
2022-10-09T09:52:41.712Z,99967.63
2022-10-09T09:55:45.099Z,99962.81
2022-10-09T09:58:54.320Z,99959.09
2022-10-09T10:02:02.513Z,99957.50
2022-10-09T10:05:18.468Z,99962.22
2022-10-09T10:08:35.850Z,99956.53
2022-10-09T10:11:45.885Z,99959.09
2022-10-09T10:14:52.282Z,99957.56
2022-10-09T10:18:04.437Z,99951.41
2022-10-09T10:21:12.311Z,99948.47
2022-10-09T10:24:21.399Z,99955.28
2022-10-09T10:27:29.015Z,99948.22
2022-10-09T10:30:36.794Z,99937.91
2022-10-09T10:33:40.282Z,99936.03
2022-10-09T10:36:43.738Z,99932.31
2022-10-09T10:39:51.530Z,99929.66
2022-10-09T10:43:04.871Z,99929.66
2022-10-09T10:46:16.903Z,99925.41
2022-10-09T10:49:22.292Z,99919.28
2022-10-09T10:52:42.564Z,99918.78
2022-10-09T10:55:54.680Z,99905.19
2022-10-09T10:59:19.696Z,99902.34
2022-10-09T11:02:51.696Z,99899.81
2022-10-09T11:06:00.678Z,99896.69
2022-10-09T11:09:11.564Z,99901.59
2022-10-09T11:12:43.367Z,99896.63
2022-10-09T11:16:00.557Z,99900.00
2022-10-09T11:19:22.252Z,99891.88
2022-10-09T11:22:41.311Z,99889.81
2022-10-09T11:25:54.922Z,99882.03
2022-10-09T11:29:04.161Z,99879.41
2022-10-09T11:32:15.211Z,99883.53
2022-10-09T11:35:23.433Z,99876.47
2022-10-09T11:38:30.139Z,99876.91
2022-10-09T11:41:35.802Z,99870.72
2022-10-09T11:44:46.232Z,99875.56
2022-10-09T11:47:56.282Z,99866.88
2022-10-09T11:51:05.843Z,99870.47
2022-10-09T11:54:15.056Z,99863.50
2022-10-09T11:57:28.433Z,99868.34
2022-10-09T12:00:33.930Z,99869.47
2022-10-09T12:03:39.597Z,99860.75
2022-10-09T12:06:53.108Z,99861.00
2022-10-09T12:10:01.710Z,99858.78
2022-10-09T12:13:08.483Z,99853.06
2022-10-09T12:16:28.106Z,99846.91
2022-10-09T12:19:37.593Z,99843.91
2022-10-09T12:23:07.272Z,99843.31
2022-10-09T12:26:13.755Z,99844.63
2022-10-09T12:29:24.759Z,99841.72
2022-10-09T12:32:31.550Z,99834.31
2022-10-09T12:35:37.495Z,99838.81
2022-10-09T12:38:43.015Z,99832.00
2022-10-09T12:41:50.358Z,99839.97
2022-10-09T12:44:56.600Z,99842.16
2022-10-09T12:48:01.178Z,99846.09
2022-10-09T12:51:15.127Z,99823.22
2022-10-09T12:54:19.865Z,99837.75
2022-10-09T12:57:24.081Z,99837.63
2022-10-09T13:00:31.603Z,99831.13
2022-10-09T13:03:38.889Z,99829.44
2022-10-09T13:06:48.545Z,99829.28
2022-10-09T13:10:00.619Z,99825.34
2022-10-09T13:13:03.893Z,99819.50
2022-10-09T13:16:10.810Z,99824.13
2022-10-09T13:19:28.495Z,99820.41
2022-10-09T13:22:33.675Z,99814.66
2022-10-09T13:25:44.903Z,99812.63
2022-10-09T13:28:48.415Z,99811.59
2022-10-09T13:31:51.706Z,99814.88
2022-10-09T13:34:55.895Z,99810.13
2022-10-09T13:37:59.093Z,99806.84
2022-10-09T13:41:03.763Z,99809.97
2022-10-09T13:44:07.019Z,99809.13
2022-10-09T13:47:10.297Z,99802.63
2022-10-09T13:50:15.327Z,99813.81
2022-10-09T13:53:18.715Z,99805.31
2022-10-09T13:56:23.246Z,99812.22
2022-10-09T13:59:26.578Z,99805.38
2022-10-09T14:02:30.136Z,99809.78
2022-10-09T14:05:35.516Z,99809.78
2022-10-09T14:08:38.697Z,99803.41
2022-10-09T14:11:43.749Z,99807.69
2022-10-09T14:14:46.942Z,99816.69
2022-10-09T14:17:50.772Z,99806.47
2022-10-09T14:20:54.394Z,99811.66
2022-10-09T14:23:59.655Z,99811.97
2022-10-09T14:27:04.300Z,99806.56
2022-10-09T14:30:08.866Z,99811.09
2022-10-09T14:33:12.927Z,99815.22
2022-10-09T14:36:19.546Z,99811.28
2022-10-09T14:39:22.800Z,99816.50
2022-10-09T14:42:27.367Z,99815.22
2022-10-09T14:45:30.626Z,99811.31
2022-10-09T14:48:34.226Z,99810.66
2022-10-09T14:51:39.583Z,99817.59
2022-10-09T14:54:45.269Z,99825.91
2022-10-09T14:57:49.843Z,99827.13
2022-10-09T15:00:53.061Z,99829.06
2022-10-09T15:03:56.483Z,99828.34
2022-10-09T15:06:59.790Z,99829.16
2022-10-09T15:10:03.049Z,99823.72
2022-10-09T15:13:07.674Z,99830.81
2022-10-09T15:16:13.578Z,99831.56
2022-10-09T15:19:16.839Z,99831.44
2022-10-09T15:22:20.055Z,99829.44
2022-10-09T15:25:23.319Z,99833.75
2022-10-09T15:28:28.580Z,99834.69
2022-10-09T15:31:33.601Z,99836.94
2022-10-09T15:34:40.761Z,99843.56
2022-10-09T15:40:54.350Z,99843.00
2022-10-09T15:44:00.617Z,99854.78
2022-10-09T15:47:03.848Z,99857.19
2022-10-09T15:50:08.398Z,99860.44
2022-10-09T15:53:15.941Z,99864.81
2022-10-09T15:56:22.439Z,99864.25
2022-10-09T15:59:27.170Z,99878.69
2022-10-09T16:02:30.348Z,99887.72
2022-10-09T16:05:38.462Z,99885.78
2022-10-09T16:08:42.396Z,99882.66
2022-10-09T16:11:45.629Z,99889.50
2022-10-09T16:14:50.312Z,99893.66
2022-10-09T16:17:54.446Z,99900.97
2022-10-09T16:20:57.755Z,99898.06
2022-10-09T16:24:01.608Z,99899.13
2022-10-09T16:27:05.026Z,99905.53
2022-10-09T16:30:12.200Z,99903.31
2022-10-09T16:33:15.508Z,99914.22
2022-10-09T16:36:19.617Z,99920.06
2022-10-09T16:39:23.744Z,99927.44
2022-10-09T16:42:26.995Z,99924.00
2022-10-09T16:45:31.620Z,99930.50
2022-10-09T16:48:34.809Z,99934.25
2022-10-09T16:51:38.186Z,99937.94
2022-10-09T16:54:41.545Z,99946.13
2022-10-09T16:57:45.061Z,99945.00
2022-10-09T17:00:49.698Z,99948.44
2022-10-09T17:03:54.676Z,99949.84
2022-10-09T17:06:58.163Z,99951.69
2022-10-09T17:10:01.539Z,99955.63
2022-10-09T17:13:04.762Z,99954.94
2022-10-09T17:16:15.704Z,99958.63
2022-10-09T17:19:21.191Z,99961.69
2022-10-09T17:22:24.419Z,99958.03
2022-10-09T17:25:28.947Z,99959.72
2022-10-09T17:28:32.352Z,99967.19
2022-10-09T17:31:37.414Z,99972.03
2022-10-09T17:34:45.776Z,99971.25
2022-10-09T17:37:49.087Z,99973.72
2022-10-09T17:40:53.116Z,99981.72
2022-10-09T17:43:57.630Z,99980.53
2022-10-09T17:47:02.285Z,99975.59
2022-10-09T17:50:06.268Z,99979.88
2022-10-09T17:53:09.930Z,99989.28
2022-10-09T17:56:13.094Z,99996.47
2022-10-09T17:59:16.814Z,99995.25
2022-10-09T18:02:21.435Z,99998.34
2022-10-09T18:05:24.626Z,100000.38
2022-10-09T18:08:28.560Z,99993.41
2022-10-09T18:11:32.109Z,100006.13
2022-10-09T18:14:35.435Z,100003.25
2022-10-09T18:17:40.849Z,100010.81
2022-10-09T18:20:44.116Z,100011.88
2022-10-09T18:23:48.245Z,100019.00
2022-10-09T18:26:51.518Z,100017.56
2022-10-09T18:29:54.775Z,100028.19
2022-10-09T18:32:59.992Z,100024.59
2022-10-09T18:36:05.095Z,100022.78
2022-10-09T18:39:11.233Z,100035.72
2022-10-09T18:42:14.437Z,100044.94
2022-10-09T18:45:17.749Z,100049.88
2022-10-09T18:48:24.324Z,100056.38
2022-10-09T18:51:29.737Z,100056.72
2022-10-09T18:54:33.078Z,100057.66
2022-10-09T18:57:36.416Z,100061.69
2022-10-09T19:00:40.195Z,100063.75
2022-10-09T19:03:47.621Z,100068.22
2022-10-09T19:06:55.367Z,100076.38
2022-10-09T19:09:58.548Z,100085.63
2022-10-09T19:13:01.879Z,100073.47
2022-10-09T19:16:06.251Z,100085.41
2022-10-09T19:19:10.882Z,100086.63
2022-10-09T19:22:16.431Z,100095.25
2022-10-09T19:25:20.743Z,100103.47
2022-10-09T19:28:25.776Z,100102.88
2022-10-09T19:31:29.064Z,100108.63
2022-10-09T19:34:33.718Z,100097.03
2022-10-09T19:37:36.946Z,100101.75
2022-10-09T19:40:40.164Z,100104.22
2022-10-09T19:43:43.383Z,100117.66
2022-10-09T19:46:46.926Z,100114.06
2022-10-09T19:49:51.584Z,100118.94
2022-10-09T19:52:55.090Z,100115.72
2022-10-09T19:55:58.359Z,100109.56
2022-10-09T19:59:03.608Z,100125.28
2022-10-09T20:02:07.971Z,100132.78
2022-10-09T20:05:12.565Z,100132.31
2022-10-09T20:08:15.783Z,100142.94
2022-10-09T20:11:20.646Z,100135.81
2022-10-09T20:14:23.902Z,100134.72
2022-10-09T20:17:27.119Z,100133.19
2022-10-09T20:20:31.743Z,100143.28
2022-10-09T20:23:35.023Z,100145.31
2022-10-09T20:26:42.805Z,100143.31
2022-10-09T20:29:46.438Z,100143.44
2022-10-09T20:32:50.042Z,100140.34
2022-10-09T20:35:56.190Z,100151.13
2022-10-09T20:39:01.146Z,100151.97
2022-10-09T20:42:04.513Z,100153.50
2022-10-09T20:45:08.158Z,100165.06
2022-10-09T20:48:11.803Z,100163.91
2022-10-09T20:51:17.207Z,100169.31
2022-10-09T20:54:22.408Z,100172.31
2022-10-09T20:57:25.546Z,100183.28
2022-10-09T21:00:28.978Z,100184.09
2022-10-09T21:03:32.251Z,100181.00
2022-10-09T21:06:36.851Z,100183.22
2022-10-09T21:09:40.044Z,100189.56
2022-10-09T21:12:43.256Z,100178.13
2022-10-09T21:15:49.727Z,100182.69
2022-10-09T21:18:55.928Z,100187.34
2022-10-09T21:22:00.483Z,100190.38
2022-10-09T21:25:03.701Z,100185.16
2022-10-09T21:28:07.075Z,100189.19
2022-10-09T21:31:11.448Z,100191.00
2022-10-09T21:34:14.691Z,100188.72
2022-10-09T21:37:21.826Z,100192.56
2022-10-09T21:40:25.438Z,100194.94
2022-10-09T21:43:28.616Z,100196.38
2022-10-09T21:46:32.607Z,100206.97
2022-10-09T21:49:36.082Z,100200.13
2022-10-09T21:52:40.683Z,100206.53
2022-10-09T21:55:43.980Z,100201.41
2022-10-09T21:58:49.056Z,100202.19
2022-10-09T22:01:52.496Z,100199.81
2022-10-09T22:04:57.402Z,100199.91
2022-10-09T22:08:02.084Z,100210.78
2022-10-09T22:11:05.696Z,100219.63
2022-10-09T22:14:09.073Z,100218.72
2022-10-09T22:17:12.316Z,100219.81
2022-10-09T22:20:15.576Z,100230.34
2022-10-09T22:23:21.900Z,100225.94
2022-10-09T22:26:25.120Z,100223.78
2022-10-09T22:29:29.103Z,100217.00
2022-10-09T22:32:32.331Z,100222.22
2022-10-09T22:35:35.518Z,100216.50
2022-10-09T22:38:40.769Z,100218.63
2022-10-09T22:41:44.001Z,100218.63
2022-10-09T22:44:47.248Z,100228.53
2022-10-09T22:47:50.579Z,100235.69
2022-10-09T22:50:53.754Z,100229.84
2022-10-09T22:53:59.682Z,100231.59
2022-10-09T22:57:02.800Z,100228.63
2022-10-09T23:00:07.239Z,100226.72
2022-10-09T23:03:10.513Z,100224.72
2022-10-09T23:06:15.576Z,100237.09
2022-10-09T23:09:20.898Z,100240.41
2022-10-09T23:12:24.058Z,100254.22
2022-10-09T23:15:27.385Z,100257.03
2022-10-09T23:18:31.071Z,100253.41
2022-10-09T23:21:34.784Z,100242.97
2022-10-09T23:24:39.343Z,100246.31
2022-10-09T23:27:42.545Z,100254.84
2022-10-09T23:30:45.739Z,100242.59
2022-10-09T23:33:49.233Z,100250.53
2022-10-09T23:36:52.383Z,100257.91
2022-10-09T23:39:56.948Z,100253.66
2022-10-09T23:43:00.159Z,100255.44
2022-10-09T23:46:05.203Z,100257.53
2022-10-09T23:49:08.456Z,100256.44
2022-10-09T23:52:11.713Z,100268.53
2022-10-09T23:55:16.429Z,100264.69
2022-10-09T23:58:21.055Z,100269.81
